TimeAKDT,TemperatureF,Dew PointF,Humidity,Sea Level PressureIn,VisibilityMPH,Wind Direction,Wind SpeedMPH,Gust SpeedMPH,PrecipitationIn,Events,Conditions,WindDirDegrees,DateUTC
12:16 AM,-14.8,-25.6,58,30.19,10.0,Calm,Calm,-,N/A,,Clear,0,2013-03-15 08:16:00
12:36 AM,-16.6,-27.4,58,30.19,10.0,Calm,Calm,-,N/A,,Clear,0,2013-03-15 08:36:00
12:56 AM,-14.8,-27.4,53,30.20,10.0,Calm,Calm,-,N/A,,Clear,0,2013-03-15 08:56:00
1:16 AM,-14.8,-27.4,53,30.20,10.0,Calm,Calm,-,N/A,,Clear,0,2013-03-15 09:16:00
1:36 AM,-16.6,-29.2,53,30.20,10.0,SW,3.5,-,N/A,,Clear,230,2013-03-15 09:36:00
1:56 AM,-16.6,-29.2,53,30.19,10.0,Calm,Calm,-,N/A,,Clear,0,2013-03-15 09:56:00
2:16 AM,-14.8,-23.8,64,30.18,10.0,South,3.5,-,N/A,,Clear,190,2013-03-15 10:16:00
2:36 AM,-14.8,-25.6,58,30.17,10.0,West,4.6,-,N/A,,Clear,270,2013-03-15 10:36:00
2:56 AM,-14.8,-25.6,58,30.17,10.0,South,4.6,-,N/A,,Clear,190,2013-03-15 10:56:00
3:16 AM,-13.0,-27.4,49,30.16,10.0,SW,4.6,-,N/A,,Clear,220,2013-03-15 11:16:00
3:36 AM,-14.8,-29.2,48,30.16,10.0,SSW,3.5,-,N/A,,Clear,200,2013-03-15 11:36:00
3:56 AM,-14.8,-29.2,48,30.15,10.0,SSW,4.6,-,N/A,,Clear,200,2013-03-15 11:56:00
4:16 AM,-13.0,-27.4,49,30.15,10.0,SW,3.5,-,N/A,,Clear,220,2013-03-15 12:16:00
4:36 AM,-13.0,-25.6,53,30.14,10.0,SW,3.5,-,N/A,,Clear,230,2013-03-15 12:36:00
4:56 AM,-11.2,-25.6,49,30.14,10.0,Calm,Calm,-,N/A,,Clear,0,2013-03-15 12:56:00
5:16 AM,-14.8,-29.2,48,30.13,10.0,SSW,3.5,-,N/A,,Clear,200,2013-03-15 13:16:00
5:36 AM,-14.8,-29.2,48,30.13,10.0,SW,3.5,-,N/A,,Clear,230,2013-03-15 13:36:00
5:56 AM,-14.8,-27.4,53,30.13,10.0,South,4.6,-,N/A,,Clear,190,2013-03-15 13:56:00
6:16 AM,-14.8,-27.4,53,30.12,10.0,SW,5.8,-,N/A,,Clear,220,2013-03-15 14:16:00
6:36 AM,-14.8,-27.4,53,30.12,10.0,SSW,5.8,-,N/A,,Clear,200,2013-03-15 14:36:00
6:56 AM,-13.0,-27.4,49,30.12,10.0,Calm,Calm,-,N/A,,Clear,0,2013-03-15 14:56:00
7:16 AM,-14.8,-29.2,48,30.11,10.0,West,3.5,-,N/A,,Clear,260,2013-03-15 15:16:00
7:36 AM,-14.8,-27.4,53,30.11,10.0,Calm,Calm,-,N/A,,Clear,0,2013-03-15 15:36:00
7:56 AM,-14.8,-25.6,58,30.10,10.0,SSW,4.6,-,N/A,,Clear,210,2013-03-15 15:56:00
8:16 AM,-14.8,-27.4,53,30.10,10.0,Calm,Calm,-,N/A,,Clear,0,2013-03-15 16:16:00
8:36 AM,-14.8,-27.4,53,30.09,10.0,SSW,4.6,-,N/A,,Clear,200,2013-03-15 16:36:00
8:56 AM,-14.8,-29.2,48,30.09,10.0,Calm,Calm,-,N/A,,Clear,0,2013-03-15 16:56:00
9:16 AM,-13.0,-25.6,53,30.08,10.0,Calm,Calm,-,N/A,,Clear,0,2013-03-15 17:16:00
9:36 AM,-13.0,-27.4,49,30.08,10.0,Calm,Calm,-,N/A,,Clear,0,2013-03-15 17:36:00
9:56 AM,-13.0,-25.6,53,30.07,10.0,Calm,Calm,-,N/A,,Clear,0,2013-03-15 17:56:00
10:16 AM,-11.2,-25.6,49,30.07,10.0,Calm,Calm,-,N/A,,Clear,0,2013-03-15 18:16:00
10:36 AM,-11.2,-25.6,49,30.06,10.0,Calm,Calm,-,N/A,,Clear,0,2013-03-15 18:36:00
10:56 AM,-9.4,-23.8,49,30.06,10.0,Calm,Calm,-,N/A,,Clear,0,2013-03-15 18:56:00
11:16 AM,-7.6,-20.2,54,30.05,10.0,Calm,Calm,-,N/A,,Clear,0,2013-03-15 19:16:00
11:36 AM,-7.6,-22.0,50,30.05,10.0,Calm,Calm,-,N/A,,Clear,0,2013-03-15 19:36:00
11:56 AM,-5.8,-20.2,50,30.04,10.0,South,4.6,-,N/A,,Clear,190,2013-03-15 19:56:00
12:16 PM,-5.8,-20.2,50,30.04,10.0,South,4.6,-,N/A,,Clear,180,2013-03-15 20:16:00
12:36 PM,-4.0,-20.2,46,30.03,10.0,Calm,Calm,-,N/A,,Clear,0,2013-03-15 20:36:00
12:56 PM,-2.2,-20.2,42,30.02,10.0,Calm,Calm,-,N/A,,Clear,0,2013-03-15 20:56:00
1:16 PM,-2.2,-18.4,46,30.02,10.0,Calm,Calm,-,N/A,,Clear,0,2013-03-15 21:16:00
1:36 PM,-0.4,-18.4,43,30.02,10.0,South,5.8,-,N/A,,Clear,190,2013-03-15 21:36:00
1:56 PM,-0.4,-18.4,43,30.01,10.0,SSW,4.6,-,N/A,,Clear,200,2013-03-15 21:56:00
2:16 PM,-0.4,-16.6,46,30.01,10.0,South,5.8,-,N/A,,Clear,180,2013-03-15 22:16:00
2:36 PM,1.4,-16.6,43,30.00,10.0,SSW,3.5,-,N/A,,Clear,210,2013-03-15 22:36:00
2:56 PM,1.4,-14.8,47,29.99,10.0,SSW,5.8,-,N/A,,Clear,200,2013-03-15 22:56:00
3:16 PM,3.2,-14.8,43,29.99,10.0,South,3.5,-,N/A,,Clear,190,2013-03-15 23:16:00
3:36 PM,5.0,-14.8,40,29.98,10.0,South,5.8,-,N/A,,Clear,190,2013-03-15 23:36:00
3:56 PM,6.8,-14.8,37,29.98,10.0,SW,3.5,-,N/A,,Clear,220,2013-03-15 23:56:00
4:16 PM,5.0,-14.8,40,29.97,10.0,SSW,3.5,-,N/A,,Clear,210,2013-03-16 00:16:00
4:36 PM,3.2,-14.8,43,29.96,10.0,Calm,Calm,-,N/A,,Clear,0,2013-03-16 00:36:00
4:56 PM,3.2,-14.8,43,29.96,10.0,Calm,Calm,-,N/A,,Clear,0,2013-03-16 00:56:00
5:16 PM,3.2,-14.8,43,29.96,10.0,Calm,Calm,-,N/A,,Clear,0,2013-03-16 01:16:00
5:36 PM,5.0,-9.4,52,29.96,10.0,Calm,Calm,-,N/A,,Clear,0,2013-03-16 01:36:00
5:56 PM,1.4,-18.4,39,29.96,10.0,NNE,5.8,-,N/A,,Clear,20,2013-03-16 01:56:00
6:16 PM,-0.4,-16.6,46,29.94,10.0,Calm,Calm,-,N/A,,Clear,0,2013-03-16 02:16:00
6:36 PM,-0.4,-16.6,46,29.94,10.0,Calm,Calm,-,N/A,,Clear,0,2013-03-16 02:36:00
6:56 PM,-0.4,-18.4,43,29.93,10.0,North,4.6,-,N/A,,Clear,350,2013-03-16 02:56:00
7:16 PM,-2.2,-20.2,42,29.93,10.0,Calm,Calm,-,N/A,,Clear,0,2013-03-16 03:16:00
7:36 PM,-5.8,-20.2,50,29.93,10.0,NE,3.5,-,N/A,,Clear,50,2013-03-16 03:36:00
7:56 PM,-7.6,-20.2,54,29.92,10.0,North,4.6,-,N/A,,Clear,360,2013-03-16 03:56:00
8:16 PM,-5.8,-18.4,55,29.92,10.0,NNE,6.9,-,N/A,,Clear,30,2013-03-16 04:16:00
8:36 PM,-5.8,-20.2,50,29.92,10.0,Calm,Calm,-,N/A,,Clear,0,2013-03-16 04:36:00
9:56 PM,-7.6,-22.0,50,29.91,10.0,Calm,Calm,-,N/A,,Clear,0,2013-03-16 05:56:00
10:16 PM,-7.6,-18.4,59,29.91,10.0,South,3.5,-,N/A,,Clear,180,2013-03-16 06:16:00
10:36 PM,-7.6,-20.2,54,29.92,10.0,Calm,Calm,-,N/A,,Clear,0,2013-03-16 06:36:00
10:56 PM,-7.6,-23.8,45,29.92,10.0,Calm,Calm,-,N/A,,Clear,0,2013-03-16 06:56:00
11:16 PM,-7.6,-14.8,71,29.92,10.0,SSE,4.6,-,N/A,,Clear,150,2013-03-16 07:16:00
11:36 PM,-7.6,-18.4,59,29.92,10.0,SSW,3.5,-,N/A,,Clear,200,2013-03-16 07:36:00
11:56 PM,-9.4,-22.0,54,29.92,10.0,Calm,Calm,-,N/A,,Clear,0,2013-03-16 07:56:00